sensor_id;sensor_type;location;lat;lon;timestamp;P1;durP1;ratioP1;P2;durP2;ratioP2
78716;SDS011;68045;50.042;14.432;2023-06-14T00:05:18;5.45;;;3.63;;
78716;SDS011;68045;50.042;14.432;2023-06-14T00:09:19;5.05;;;3.65;;
78716;SDS011;68045;50.042;14.432;2023-06-14T00:13:19;7.07;;;3.55;;
78716;SDS011;68045;50.042;14.432;2023-06-14T00:17:20;6.05;;;3.67;;
78716;SDS011;68045;50.042;14.432;2023-06-14T00:21:22;5.75;;;3.58;;
78716;SDS011;68045;50.042;14.432;2023-06-14T00:25:23;7.95;;;3.75;;
78716;SDS011;68045;50.042;14.432;2023-06-14T00:33:26;7.68;;;3.63;;
78716;SDS011;68045;50.042;14.432;2023-06-14T00:37:27;7.32;;;3.90;;
78716;SDS011;68045;50.042;14.432;2023-06-14T00:41:28;5.30;;;3.25;;
78716;SDS011;68045;50.042;14.432;2023-06-14T00:45:29;6.43;;;3.75;;
78716;SDS011;68045;50.042;14.432;2023-06-14T00:49:32;6.65;;;4.22;;
78716;SDS011;68045;50.042;14.432;2023-06-14T00:53:33;7.55;;;3.42;;
78716;SDS011;68045;50.042;14.432;2023-06-14T00:57:36;5.85;;;3.47;;
78716;SDS011;68045;50.042;14.432;2023-06-14T01:01:38;7.28;;;3.58;;
78716;SDS011;68045;50.042;14.432;2023-06-14T01:05:43;4.45;;;3.25;;
78716;SDS011;68045;50.042;14.432;2023-06-14T01:09:52;5.15;;;3.70;;
78716;SDS011;68045;50.042;14.432;2023-06-14T01:14:04;7.28;;;3.65;;
78716;SDS011;68045;50.042;14.432;2023-06-14T01:18:06;5.90;;;4.15;;
78716;SDS011;68045;50.042;14.432;2023-06-14T01:22:08;6.18;;;3.95;;
78716;SDS011;68045;50.042;14.432;2023-06-14T01:26:09;5.63;;;3.80;;
78716;SDS011;68045;50.042;14.432;2023-06-14T01:30:13;4.28;;;3.28;;
78716;SDS011;68045;50.042;14.432;2023-06-14T01:34:14;7.70;;;4.38;;
78716;SDS011;68045;50.042;14.432;2023-06-14T01:38:16;5.90;;;3.72;;
78716;SDS011;68045;50.042;14.432;2023-06-14T01:42:19;8.20;;;4.60;;
78716;SDS011;68045;50.042;14.432;2023-06-14T01:46:21;9.20;;;6.68;;
78716;SDS011;68045;50.042;14.432;2023-06-14T01:50:23;8.77;;;5.57;;
78716;SDS011;68045;50.042;14.432;2023-06-14T01:54:29;6.10;;;4.13;;
78716;SDS011;68045;50.042;14.432;2023-06-14T01:58:31;6.63;;;4.35;;
78716;SDS011;68045;50.042;14.432;2023-06-14T02:06:34;7.50;;;4.40;;
78716;SDS011;68045;50.042;14.432;2023-06-14T02:10:35;7.82;;;4.07;;
78716;SDS011;68045;50.042;14.432;2023-06-14T02:14:36;5.93;;;4.35;;
78716;SDS011;68045;50.042;14.432;2023-06-14T02:18:38;5.95;;;4.07;;
78716;SDS011;68045;50.042;14.432;2023-06-14T02:22:39;5.72;;;4.05;;
78716;SDS011;68045;50.042;14.432;2023-06-14T02:26:41;8.15;;;4.20;;
78716;SDS011;68045;50.042;14.432;2023-06-14T02:30:42;9.38;;;4.30;;
78716;SDS011;68045;50.042;14.432;2023-06-14T02:34:43;5.30;;;3.95;;
78716;SDS011;68045;50.042;14.432;2023-06-14T02:38:44;9.07;;;4.25;;
78716;SDS011;68045;50.042;14.432;2023-06-14T02:42:46;8.70;;;4.05;;
78716;SDS011;68045;50.042;14.432;2023-06-14T02:46:47;7.15;;;4.20;;
78716;SDS011;68045;50.042;14.432;2023-06-14T02:50:47;7.15;;;4.25;;
78716;SDS011;68045;50.042;14.432;2023-06-14T02:54:48;6.28;;;4.28;;
78716;SDS011;68045;50.042;14.432;2023-06-14T02:58:50;8.88;;;4.43;;
78716;SDS011;68045;50.042;14.432;2023-06-14T03:02:52;6.20;;;4.22;;
78716;SDS011;68045;50.042;14.432;2023-06-14T03:06:55;7.57;;;4.70;;
78716;SDS011;68045;50.042;14.432;2023-06-14T03:10:57;6.80;;;4.28;;
78716;SDS011;68045;50.042;14.432;2023-06-14T03:15:00;6.82;;;4.60;;
78716;SDS011;68045;50.042;14.432;2023-06-14T03:19:09;5.30;;;3.88;;
78716;SDS011;68045;50.042;14.432;2023-06-14T03:23:10;6.80;;;4.25;;
78716;SDS011;68045;50.042;14.432;2023-06-14T03:31:18;5.47;;;3.78;;
78716;SDS011;68045;50.042;14.432;2023-06-14T03:35:20;7.07;;;4.25;;
78716;SDS011;68045;50.042;14.432;2023-06-14T03:39:23;6.32;;;4.20;;
78716;SDS011;68045;50.042;14.432;2023-06-14T03:43:24;7.78;;;4.40;;
78716;SDS011;68045;50.042;14.432;2023-06-14T03:47:25;7.43;;;5.13;;
78716;SDS011;68045;50.042;14.432;2023-06-14T03:51:28;6.68;;;4.50;;
78716;SDS011;68045;50.042;14.432;2023-06-14T03:55:29;9.32;;;4.35;;
78716;SDS011;68045;50.042;14.432;2023-06-14T03:59:33;7.68;;;5.22;;
78716;SDS011;68045;50.042;14.432;2023-06-14T04:03:36;7.70;;;4.68;;
78716;SDS011;68045;50.042;14.432;2023-06-14T04:07:38;6.10;;;3.95;;
78716;SDS011;68045;50.042;14.432;2023-06-14T04:11:45;11.55;;;5.75;;
78716;SDS011;68045;50.042;14.432;2023-06-14T04:15:46;9.95;;;4.78;;
78716;SDS011;68045;50.042;14.432;2023-06-14T04:19:52;8.40;;;4.57;;
78716;SDS011;68045;50.042;14.432;2023-06-14T04:23:53;7.90;;;4.68;;
78716;SDS011;68045;50.042;14.432;2023-06-14T04:27:58;9.90;;;4.78;;
78716;SDS011;68045;50.042;14.432;2023-06-14T04:32:00;7.45;;;4.97;;
78716;SDS011;68045;50.042;14.432;2023-06-14T04:36:02;8.00;;;4.55;;
78716;SDS011;68045;50.042;14.432;2023-06-14T04:40:05;7.70;;;4.82;;
78716;SDS011;68045;50.042;14.432;2023-06-14T04:44:08;6.55;;;4.05;;
78716;SDS011;68045;50.042;14.432;2023-06-14T04:48:15;11.20;;;5.28;;
78716;SDS011;68045;50.042;14.432;2023-06-14T04:52:16;10.82;;;4.97;;
78716;SDS011;68045;50.042;14.432;2023-06-14T04:56:19;6.72;;;4.97;;
78716;SDS011;68045;50.042;14.432;2023-06-14T05:00:20;7.38;;;4.85;;
78716;SDS011;68045;50.042;14.432;2023-06-14T05:04:22;10.55;;;5.65;;
78716;SDS011;68045;50.042;14.432;2023-06-14T05:08:23;8.23;;;5.53;;
78716;SDS011;68045;50.042;14.432;2023-06-14T05:12:25;8.77;;;4.80;;
78716;SDS011;68045;50.042;14.432;2023-06-14T05:16:26;7.68;;;5.18;;
78716;SDS011;68045;50.042;14.432;2023-06-14T05:20:29;7.97;;;5.65;;
78716;SDS011;68045;50.042;14.432;2023-06-14T05:24:30;7.82;;;5.63;;
78716;SDS011;68045;50.042;14.432;2023-06-14T05:28:32;7.38;;;5.10;;
78716;SDS011;68045;50.042;14.432;2023-06-14T05:32:33;9.35;;;6.32;;
78716;SDS011;68045;50.042;14.432;2023-06-14T05:36:34;10.18;;;5.55;;
78716;SDS011;68045;50.042;14.432;2023-06-14T05:40:37;8.25;;;5.30;;
78716;SDS011;68045;50.042;14.432;2023-06-14T05:44:38;7.78;;;5.18;;
78716;SDS011;68045;50.042;14.432;2023-06-14T05:48:39;10.48;;;5.65;;
78716;SDS011;68045;50.042;14.432;2023-06-14T05:52:40;9.15;;;5.10;;
78716;SDS011;68045;50.042;14.432;2023-06-14T05:56:41;9.07;;;5.25;;
78716;SDS011;68045;50.042;14.432;2023-06-14T06:00:41;6.75;;;5.18;;
78716;SDS011;68045;50.042;14.432;2023-06-14T06:04:42;8.95;;;5.22;;
78716;SDS011;68045;50.042;14.432;2023-06-14T06:08:43;8.73;;;5.72;;
78716;SDS011;68045;50.042;14.432;2023-06-14T06:12:44;9.38;;;5.35;;
78716;SDS011;68045;50.042;14.432;2023-06-14T06:16:45;8.55;;;5.47;;
78716;SDS011;68045;50.042;14.432;2023-06-14T06:20:46;11.45;;;5.68;;
78716;SDS011;68045;50.042;14.432;2023-06-14T06:24:47;10.63;;;6.07;;
78716;SDS011;68045;50.042;14.432;2023-06-14T06:28:48;13.10;;;5.78;;
78716;SDS011;68045;50.042;14.432;2023-06-14T06:32:49;13.65;;;5.57;;
78716;SDS011;68045;50.042;14.432;2023-06-14T06:36:51;7.82;;;4.93;;
78716;SDS011;68045;50.042;14.432;2023-06-14T06:40:52;7.13;;;4.82;;
78716;SDS011;68045;50.042;14.432;2023-06-14T06:44:54;6.72;;;4.70;;
78716;SDS011;68045;50.042;14.432;2023-06-14T06:48:55;8.18;;;5.25;;
78716;SDS011;68045;50.042;14.432;2023-06-14T06:52:56;9.10;;;5.22;;
78716;SDS011;68045;50.042;14.432;2023-06-14T06:56:57;8.93;;;5.90;;
78716;SDS011;68045;50.042;14.432;2023-06-14T07:00:59;9.13;;;5.82;;
78716;SDS011;68045;50.042;14.432;2023-06-14T07:04:59;10.57;;;5.65;;
78716;SDS011;68045;50.042;14.432;2023-06-14T07:09:00;9.45;;;5.55;;
78716;SDS011;68045;50.042;14.432;2023-06-14T07:13:02;8.70;;;5.55;;
78716;SDS011;68045;50.042;14.432;2023-06-14T07:17:03;10.75;;;6.20;;
78716;SDS011;68045;50.042;14.432;2023-06-14T07:21:04;10.90;;;5.18;;
78716;SDS011;68045;50.042;14.432;2023-06-14T07:25:06;7.15;;;4.78;;
78716;SDS011;68045;50.042;14.432;2023-06-14T07:29:08;8.68;;;5.18;;
78716;SDS011;68045;50.042;14.432;2023-06-14T07:33:09;7.25;;;5.07;;
78716;SDS011;68045;50.042;14.432;2023-06-14T07:37:12;10.32;;;5.57;;
78716;SDS011;68045;50.042;14.432;2023-06-14T07:41:13;9.15;;;4.47;;
78716;SDS011;68045;50.042;14.432;2023-06-14T07:45:14;8.23;;;4.82;;
78716;SDS011;68045;50.042;14.432;2023-06-14T07:49:15;7.18;;;4.53;;
78716;SDS011;68045;50.042;14.432;2023-06-14T07:53:17;8.07;;;4.78;;
78716;SDS011;68045;50.042;14.432;2023-06-14T07:57:17;9.43;;;5.13;;
78716;SDS011;68045;50.042;14.432;2023-06-14T08:01:20;13.63;;;4.88;;
78716;SDS011;68045;50.042;14.432;2023-06-14T08:05:25;6.90;;;4.80;;
78716;SDS011;68045;50.042;14.432;2023-06-14T08:09:26;6.03;;;4.32;;
78716;SDS011;68045;50.042;14.432;2023-06-14T08:13:29;7.38;;;4.50;;
78716;SDS011;68045;50.042;14.432;2023-06-14T08:17:30;9.23;;;5.38;;
78716;SDS011;68045;50.042;14.432;2023-06-14T08:21:31;8.35;;;5.22;;
78716;SDS011;68045;50.042;14.432;2023-06-14T08:25:34;8.15;;;5.00;;
78716;SDS011;68045;50.042;14.432;2023-06-14T08:29:35;6.95;;;5.10;;
78716;SDS011;68045;50.042;14.432;2023-06-14T08:33:36;8.60;;;4.45;;
78716;SDS011;68045;50.042;14.432;2023-06-14T08:37:40;5.38;;;3.92;;
78716;SDS011;68045;50.042;14.432;2023-06-14T08:41:43;8.32;;;4.53;;
78716;SDS011;68045;50.042;14.432;2023-06-14T08:45:47;7.32;;;5.15;;
78716;SDS011;68045;50.042;14.432;2023-06-14T08:49:51;10.25;;;4.93;;
78716;SDS011;68045;50.042;14.432;2023-06-14T08:53:54;7.22;;;4.07;;
78716;SDS011;68045;50.042;14.432;2023-06-14T08:57:58;8.55;;;3.97;;
78716;SDS011;68045;50.042;14.432;2023-06-14T09:02:00;6.57;;;4.40;;
78716;SDS011;68045;50.042;14.432;2023-06-14T09:06:00;5.95;;;4.30;;
78716;SDS011;68045;50.042;14.432;2023-06-14T09:10:12;9.30;;;4.20;;
78716;SDS011;68045;50.042;14.432;2023-06-14T09:14:15;7.50;;;3.70;;
78716;SDS011;68045;50.042;14.432;2023-06-14T09:18:16;5.47;;;3.67;;
78716;SDS011;68045;50.042;14.432;2023-06-14T09:22:17;6.05;;;4.18;;
78716;SDS011;68045;50.042;14.432;2023-06-14T09:26:18;5.40;;;3.78;;
78716;SDS011;68045;50.042;14.432;2023-06-14T09:30:23;6.50;;;4.30;;
78716;SDS011;68045;50.042;14.432;2023-06-14T09:34:24;6.07;;;4.20;;
78716;SDS011;68045;50.042;14.432;2023-06-14T09:38:25;7.80;;;4.20;;
78716;SDS011;68045;50.042;14.432;2023-06-14T09:42:27;8.25;;;4.53;;
78716;SDS011;68045;50.042;14.432;2023-06-14T09:46:29;6.93;;;4.47;;
78716;SDS011;68045;50.042;14.432;2023-06-14T09:50:30;8.95;;;4.50;;
78716;SDS011;68045;50.042;14.432;2023-06-14T09:54:31;8.70;;;4.57;;
78716;SDS011;68045;50.042;14.432;2023-06-14T10:02:41;11.27;;;5.40;;
78716;SDS011;68045;50.042;14.432;2023-06-14T10:06:48;6.80;;;4.78;;
78716;SDS011;68045;50.042;14.432;2023-06-14T10:10:51;8.10;;;4.88;;
78716;SDS011;68045;50.042;14.432;2023-06-14T10:14:52;6.82;;;4.60;;
78716;SDS011;68045;50.042;14.432;2023-06-14T10:18:59;7.30;;;4.40;;
78716;SDS011;68045;50.042;14.432;2023-06-14T10:23:24;6.53;;;4.38;;
78716;SDS011;68045;50.042;14.432;2023-06-14T10:27:27;5.40;;;4.15;;
78716;SDS011;68045;50.042;14.432;2023-06-14T10:31:44;8.30;;;4.45;;
78716;SDS011;68045;50.042;14.432;2023-06-14T10:35:47;5.57;;;4.03;;
78716;SDS011;68045;50.042;14.432;2023-06-14T10:39:47;7.55;;;4.85;;
78716;SDS011;68045;50.042;14.432;2023-06-14T10:47:50;8.27;;;4.75;;
78716;SDS011;68045;50.042;14.432;2023-06-14T10:51:53;5.57;;;4.35;;
78716;SDS011;68045;50.042;14.432;2023-06-14T10:56:05;6.50;;;4.70;;
78716;SDS011;68045;50.042;14.432;2023-06-14T11:00:07;6.72;;;4.72;;
78716;SDS011;68045;50.042;14.432;2023-06-14T11:04:13;6.95;;;4.43;;
78716;SDS011;68045;50.042;14.432;2023-06-14T11:12:35;5.28;;;4.30;;
78716;SDS011;68045;50.042;14.432;2023-06-14T11:16:40;6.43;;;4.13;;
78716;SDS011;68045;50.042;14.432;2023-06-14T11:20:41;7.20;;;4.57;;
78716;SDS011;68045;50.042;14.432;2023-06-14T11:24:42;6.70;;;4.55;;
78716;SDS011;68045;50.042;14.432;2023-06-14T11:32:51;6.80;;;4.43;;
78716;SDS011;68045;50.042;14.432;2023-06-14T11:36:53;7.32;;;4.03;;
78716;SDS011;68045;50.042;14.432;2023-06-14T11:40:58;6.65;;;4.82;;
78716;SDS011;68045;50.042;14.432;2023-06-14T11:45:00;7.30;;;4.20;;
78716;SDS011;68045;50.042;14.432;2023-06-14T11:49:02;7.57;;;4.47;;
78716;SDS011;68045;50.042;14.432;2023-06-14T11:53:05;5.90;;;3.85;;
78716;SDS011;68045;50.042;14.432;2023-06-14T11:57:10;8.27;;;4.38;;
78716;SDS011;68045;50.042;14.432;2023-06-14T12:01:16;6.40;;;4.65;;
78716;SDS011;68045;50.042;14.432;2023-06-14T12:05:20;7.47;;;4.20;;
78716;SDS011;68045;50.042;14.432;2023-06-14T12:09:21;5.25;;;4.32;;
78716;SDS011;68045;50.042;14.432;2023-06-14T12:13:24;8.48;;;4.90;;
78716;SDS011;68045;50.042;14.432;2023-06-14T12:17:25;6.22;;;4.53;;
78716;SDS011;68045;50.042;14.432;2023-06-14T12:21:30;9.43;;;4.53;;
78716;SDS011;68045;50.042;14.432;2023-06-14T12:25:35;8.77;;;4.45;;
78716;SDS011;68045;50.042;14.432;2023-06-14T12:29:40;6.30;;;4.90;;
78716;SDS011;68045;50.042;14.432;2023-06-14T12:33:41;7.82;;;4.45;;
78716;SDS011;68045;50.042;14.432;2023-06-14T12:37:43;5.60;;;4.63;;
78716;SDS011;68045;50.042;14.432;2023-06-14T12:41:44;6.53;;;4.90;;
78716;SDS011;68045;50.042;14.432;2023-06-14T12:45:45;5.93;;;4.28;;
78716;SDS011;68045;50.042;14.432;2023-06-14T12:49:46;6.78;;;4.97;;
78716;SDS011;68045;50.042;14.432;2023-06-14T12:53:47;6.90;;;4.70;;
78716;SDS011;68045;50.042;14.432;2023-06-14T12:57:47;6.72;;;4.38;;
78716;SDS011;68045;50.042;14.432;2023-06-14T13:01:50;6.65;;;4.20;;
78716;SDS011;68045;50.042;14.432;2023-06-14T13:05:51;5.13;;;3.90;;
78716;SDS011;68045;50.042;14.432;2023-06-14T13:09:52;6.40;;;4.20;;
78716;SDS011;68045;50.042;14.432;2023-06-14T13:13:53;6.13;;;4.25;;
78716;SDS011;68045;50.042;14.432;2023-06-14T13:17:54;7.65;;;4.85;;
78716;SDS011;68045;50.042;14.432;2023-06-14T13:21:55;7.47;;;4.30;;
78716;SDS011;68045;50.042;14.432;2023-06-14T13:25:56;7.20;;;4.18;;
78716;SDS011;68045;50.042;14.432;2023-06-14T13:29:57;5.45;;;4.30;;
78716;SDS011;68045;50.042;14.432;2023-06-14T13:33:58;6.53;;;4.60;;
78716;SDS011;68045;50.042;14.432;2023-06-14T13:37:59;5.25;;;4.05;;
78716;SDS011;68045;50.042;14.432;2023-06-14T13:42:00;7.45;;;4.03;;
78716;SDS011;68045;50.042;14.432;2023-06-14T13:46:01;6.90;;;4.13;;
78716;SDS011;68045;50.042;14.432;2023-06-14T13:50:02;5.40;;;4.05;;
78716;SDS011;68045;50.042;14.432;2023-06-14T13:54:04;5.20;;;3.83;;
78716;SDS011;68045;50.042;14.432;2023-06-14T13:58:05;5.93;;;4.28;;
78716;SDS011;68045;50.042;14.432;2023-06-14T14:02:06;7.72;;;3.80;;
78716;SDS011;68045;50.042;14.432;2023-06-14T14:06:07;7.57;;;4.20;;
78716;SDS011;68045;50.042;14.432;2023-06-14T14:10:11;6.97;;;4.22;;
78716;SDS011;68045;50.042;14.432;2023-06-14T14:14:13;7.30;;;3.85;;
78716;SDS011;68045;50.042;14.432;2023-06-14T14:18:14;5.97;;;4.25;;
78716;SDS011;68045;50.042;14.432;2023-06-14T14:22:16;7.35;;;4.18;;
78716;SDS011;68045;50.042;14.432;2023-06-14T14:26:18;7.93;;;4.25;;
78716;SDS011;68045;50.042;14.432;2023-06-14T14:30:18;5.95;;;3.78;;
78716;SDS011;68045;50.042;14.432;2023-06-14T14:34:24;8.02;;;3.85;;
78716;SDS011;68045;50.042;14.432;2023-06-14T14:38:25;5.38;;;3.53;;
78716;SDS011;68045;50.042;14.432;2023-06-14T14:42:26;5.57;;;3.60;;
78716;SDS011;68045;50.042;14.432;2023-06-14T14:46:28;6.32;;;3.60;;
78716;SDS011;68045;50.042;14.432;2023-06-14T14:50:29;5.28;;;3.70;;
78716;SDS011;68045;50.042;14.432;2023-06-14T14:54:30;6.75;;;4.00;;
78716;SDS011;68045;50.042;14.432;2023-06-14T14:58:31;5.45;;;3.75;;
78716;SDS011;68045;50.042;14.432;2023-06-14T15:02:32;5.85;;;3.75;;
78716;SDS011;68045;50.042;14.432;2023-06-14T15:06:33;5.95;;;3.53;;
78716;SDS011;68045;50.042;14.432;2023-06-14T15:10:36;5.32;;;3.60;;
78716;SDS011;68045;50.042;14.432;2023-06-14T15:14:43;5.30;;;3.85;;
78716;SDS011;68045;50.042;14.432;2023-06-14T15:18:45;7.93;;;4.20;;
78716;SDS011;68045;50.042;14.432;2023-06-14T15:22:46;5.10;;;3.67;;
78716;SDS011;68045;50.042;14.432;2023-06-14T15:26:46;5.35;;;3.80;;
78716;SDS011;68045;50.042;14.432;2023-06-14T15:30:49;9.38;;;3.85;;
78716;SDS011;68045;50.042;14.432;2023-06-14T15:34:50;6.78;;;3.67;;
78716;SDS011;68045;50.042;14.432;2023-06-14T15:38:51;7.07;;;3.42;;
78716;SDS011;68045;50.042;14.432;2023-06-14T15:42:52;6.03;;;3.60;;
78716;SDS011;68045;50.042;14.432;2023-06-14T15:46:52;4.30;;;3.33;;
78716;SDS011;68045;50.042;14.432;2023-06-14T15:50:54;5.68;;;3.63;;
78716;SDS011;68045;50.042;14.432;2023-06-14T15:54:55;5.07;;;3.95;;
78716;SDS011;68045;50.042;14.432;2023-06-14T15:58:56;9.25;;;4.00;;
78716;SDS011;68045;50.042;14.432;2023-06-14T16:06:59;4.97;;;4.03;;
78716;SDS011;68045;50.042;14.432;2023-06-14T16:11:00;6.15;;;3.67;;
78716;SDS011;68045;50.042;14.432;2023-06-14T16:15:01;6.07;;;3.55;;
78716;SDS011;68045;50.042;14.432;2023-06-14T16:19:02;5.97;;;3.53;;
78716;SDS011;68045;50.042;14.432;2023-06-14T16:23:03;6.97;;;3.58;;
78716;SDS011;68045;50.042;14.432;2023-06-14T16:27:04;5.47;;;3.90;;
78716;SDS011;68045;50.042;14.432;2023-06-14T16:31:07;5.47;;;3.70;;
78716;SDS011;68045;50.042;14.432;2023-06-14T16:35:09;6.00;;;3.75;;
78716;SDS011;68045;50.042;14.432;2023-06-14T16:39:10;6.63;;;4.18;;
78716;SDS011;68045;50.042;14.432;2023-06-14T16:43:12;9.02;;;4.07;;
78716;SDS011;68045;50.042;14.432;2023-06-14T16:47:13;9.23;;;4.30;;
78716;SDS011;68045;50.042;14.432;2023-06-14T16:51:14;5.82;;;3.95;;
78716;SDS011;68045;50.042;14.432;2023-06-14T16:55:15;5.40;;;4.35;;
78716;SDS011;68045;50.042;14.432;2023-06-14T16:59:16;5.90;;;3.75;;
78716;SDS011;68045;50.042;14.432;2023-06-14T17:03:17;6.90;;;3.58;;
78716;SDS011;68045;50.042;14.432;2023-06-14T17:07:18;5.22;;;3.80;;
78716;SDS011;68045;50.042;14.432;2023-06-14T17:11:19;5.72;;;4.03;;
78716;SDS011;68045;50.042;14.432;2023-06-14T17:15:22;5.80;;;3.72;;
78716;SDS011;68045;50.042;14.432;2023-06-14T17:19:23;6.43;;;3.55;;
78716;SDS011;68045;50.042;14.432;2023-06-14T17:23:25;5.45;;;3.65;;
78716;SDS011;68045;50.042;14.432;2023-06-14T17:27:26;5.07;;;3.50;;
78716;SDS011;68045;50.042;14.432;2023-06-14T17:31:26;6.35;;;4.40;;
78716;SDS011;68045;50.042;14.432;2023-06-14T17:35:27;5.22;;;3.92;;
78716;SDS011;68045;50.042;14.432;2023-06-14T17:39:28;5.00;;;3.67;;
78716;SDS011;68045;50.042;14.432;2023-06-14T17:43:29;12.43;;;4.30;;
78716;SDS011;68045;50.042;14.432;2023-06-14T17:47:31;5.10;;;3.67;;
78716;SDS011;68045;50.042;14.432;2023-06-14T17:51:31;6.05;;;4.10;;
78716;SDS011;68045;50.042;14.432;2023-06-14T17:55:33;8.57;;;4.65;;
78716;SDS011;68045;50.042;14.432;2023-06-14T17:59:34;9.27;;;4.60;;
78716;SDS011;68045;50.042;14.432;2023-06-14T18:03:35;11.18;;;5.55;;
78716;SDS011;68045;50.042;14.432;2023-06-14T18:07:36;9.05;;;5.15;;
78716;SDS011;68045;50.042;14.432;2023-06-14T18:11:38;5.38;;;4.18;;
78716;SDS011;68045;50.042;14.432;2023-06-14T18:15:39;11.75;;;4.47;;
78716;SDS011;68045;50.042;14.432;2023-06-14T18:19:40;4.97;;;3.95;;
78716;SDS011;68045;50.042;14.432;2023-06-14T18:23:42;8.18;;;4.32;;
78716;SDS011;68045;50.042;14.432;2023-06-14T18:27:46;6.75;;;4.10;;
78716;SDS011;68045;50.042;14.432;2023-06-14T18:31:47;7.22;;;4.47;;
78716;SDS011;68045;50.042;14.432;2023-06-14T18:35:48;7.28;;;3.90;;
78716;SDS011;68045;50.042;14.432;2023-06-14T18:39:49;6.47;;;4.35;;
78716;SDS011;68045;50.042;14.432;2023-06-14T18:43:51;7.53;;;4.25;;
78716;SDS011;68045;50.042;14.432;2023-06-14T18:47:52;7.57;;;4.55;;
78716;SDS011;68045;50.042;14.432;2023-06-14T18:51:52;6.95;;;4.50;;
78716;SDS011;68045;50.042;14.432;2023-06-14T18:55:53;5.60;;;3.92;;
78716;SDS011;68045;50.042;14.432;2023-06-14T18:59:54;6.47;;;4.28;;
78716;SDS011;68045;50.042;14.432;2023-06-14T19:03:55;5.00;;;3.95;;
78716;SDS011;68045;50.042;14.432;2023-06-14T19:07:56;5.10;;;3.88;;
78716;SDS011;68045;50.042;14.432;2023-06-14T19:11:57;5.95;;;4.20;;
78716;SDS011;68045;50.042;14.432;2023-06-14T19:15:58;5.30;;;3.70;;
78716;SDS011;68045;50.042;14.432;2023-06-14T19:19:58;6.97;;;5.22;;
78716;SDS011;68045;50.042;14.432;2023-06-14T19:23:59;6.90;;;4.22;;
78716;SDS011;68045;50.042;14.432;2023-06-14T19:28:00;6.25;;;4.30;;
78716;SDS011;68045;50.042;14.432;2023-06-14T19:32:01;5.90;;;4.32;;
78716;SDS011;68045;50.042;14.432;2023-06-14T19:36:03;7.00;;;4.60;;
78716;SDS011;68045;50.042;14.432;2023-06-14T19:40:04;5.85;;;4.20;;
78716;SDS011;68045;50.042;14.432;2023-06-14T19:44:06;7.30;;;4.47;;
78716;SDS011;68045;50.042;14.432;2023-06-14T19:48:07;7.88;;;4.70;;
78716;SDS011;68045;50.042;14.432;2023-06-14T19:52:07;8.18;;;4.45;;
78716;SDS011;68045;50.042;14.432;2023-06-14T19:56:09;6.55;;;5.13;;
78716;SDS011;68045;50.042;14.432;2023-06-14T20:00:10;6.22;;;4.50;;
78716;SDS011;68045;50.042;14.432;2023-06-14T20:04:11;8.02;;;4.97;;
78716;SDS011;68045;50.042;14.432;2023-06-14T20:08:12;8.18;;;5.18;;
78716;SDS011;68045;50.042;14.432;2023-06-14T20:12:13;9.52;;;5.63;;
78716;SDS011;68045;50.042;14.432;2023-06-14T20:16:14;8.20;;;5.22;;
78716;SDS011;68045;50.042;14.432;2023-06-14T20:20:15;8.38;;;5.57;;
78716;SDS011;68045;50.042;14.432;2023-06-14T20:24:16;7.22;;;5.40;;
78716;SDS011;68045;50.042;14.432;2023-06-14T20:28:17;7.32;;;5.05;;
78716;SDS011;68045;50.042;14.432;2023-06-14T20:32:19;8.15;;;5.60;;
78716;SDS011;68045;50.042;14.432;2023-06-14T20:36:20;8.32;;;5.10;;
78716;SDS011;68045;50.042;14.432;2023-06-14T20:40:22;9.68;;;5.25;;
78716;SDS011;68045;50.042;14.432;2023-06-14T20:44:25;13.40;;;6.00;;
78716;SDS011;68045;50.042;14.432;2023-06-14T20:48:29;8.98;;;5.32;;
78716;SDS011;68045;50.042;14.432;2023-06-14T20:52:31;7.32;;;5.07;;
78716;SDS011;68045;50.042;14.432;2023-06-14T20:56:32;8.35;;;5.07;;
78716;SDS011;68045;50.042;14.432;2023-06-14T21:00:33;14.93;;;5.22;;
78716;SDS011;68045;50.042;14.432;2023-06-14T21:04:36;9.25;;;5.45;;
78716;SDS011;68045;50.042;14.432;2023-06-14T21:08:38;11.63;;;6.25;;
78716;SDS011;68045;50.042;14.432;2023-06-14T21:12:39;8.27;;;5.25;;
78716;SDS011;68045;50.042;14.432;2023-06-14T21:16:41;8.88;;;5.53;;
78716;SDS011;68045;50.042;14.432;2023-06-14T21:20:42;9.65;;;5.85;;
78716;SDS011;68045;50.042;14.432;2023-06-14T21:24:43;8.15;;;5.57;;
78716;SDS011;68045;50.042;14.432;2023-06-14T21:28:43;10.15;;;5.28;;
78716;SDS011;68045;50.042;14.432;2023-06-14T21:32:45;9.27;;;5.10;;
78716;SDS011;68045;50.042;14.432;2023-06-14T21:36:48;9.38;;;5.47;;
78716;SDS011;68045;50.042;14.432;2023-06-14T21:40:52;9.98;;;5.47;;
78716;SDS011;68045;50.042;14.432;2023-06-14T21:44:53;7.45;;;5.47;;
78716;SDS011;68045;50.042;14.432;2023-06-14T21:48:56;7.30;;;5.15;;
78716;SDS011;68045;50.042;14.432;2023-06-14T21:52:57;8.15;;;4.57;;
78716;SDS011;68045;50.042;14.432;2023-06-14T21:56:58;11.18;;;5.10;;
78716;SDS011;68045;50.042;14.432;2023-06-14T22:00:59;8.80;;;5.07;;
78716;SDS011;68045;50.042;14.432;2023-06-14T22:05:00;12.23;;;4.75;;
78716;SDS011;68045;50.042;14.432;2023-06-14T22:09:01;8.80;;;5.18;;
78716;SDS011;68045;50.042;14.432;2023-06-14T22:13:02;10.02;;;5.45;;
78716;SDS011;68045;50.042;14.432;2023-06-14T22:17:03;10.02;;;5.32;;
78716;SDS011;68045;50.042;14.432;2023-06-14T22:21:04;8.90;;;5.65;;
78716;SDS011;68045;50.042;14.432;2023-06-14T22:25:05;11.80;;;5.70;;
78716;SDS011;68045;50.042;14.432;2023-06-14T22:29:10;9.02;;;5.13;;
78716;SDS011;68045;50.042;14.432;2023-06-14T22:33:11;10.45;;;5.90;;
78716;SDS011;68045;50.042;14.432;2023-06-14T22:37:12;8.90;;;5.85;;
78716;SDS011;68045;50.042;14.432;2023-06-14T22:41:15;7.45;;;4.90;;
78716;SDS011;68045;50.042;14.432;2023-06-14T22:45:17;13.45;;;5.80;;
78716;SDS011;68045;50.042;14.432;2023-06-14T22:49:22;9.35;;;5.65;;
78716;SDS011;68045;50.042;14.432;2023-06-14T22:53:25;9.80;;;5.70;;
78716;SDS011;68045;50.042;14.432;2023-06-14T22:57:29;8.70;;;5.38;;
78716;SDS011;68045;50.042;14.432;2023-06-14T23:01:30;9.68;;;5.78;;
78716;SDS011;68045;50.042;14.432;2023-06-14T23:05:31;8.70;;;5.32;;
78716;SDS011;68045;50.042;14.432;2023-06-14T23:09:32;7.07;;;5.22;;
78716;SDS011;68045;50.042;14.432;2023-06-14T23:13:35;7.82;;;5.65;;
78716;SDS011;68045;50.042;14.432;2023-06-14T23:17:38;9.65;;;5.70;;
78716;SDS011;68045;50.042;14.432;2023-06-14T23:25:41;9.35;;;5.82;;
78716;SDS011;68045;50.042;14.432;2023-06-14T23:29:42;7.43;;;5.57;;
78716;SDS011;68045;50.042;14.432;2023-06-14T23:33:43;9.88;;;6.35;;
78716;SDS011;68045;50.042;14.432;2023-06-14T23:37:44;7.13;;;5.32;;
78716;SDS011;68045;50.042;14.432;2023-06-14T23:41:45;10.23;;;6.32;;
78716;SDS011;68045;50.042;14.432;2023-06-14T23:45:47;9.82;;;6.30;;
78716;SDS011;68045;50.042;14.432;2023-06-14T23:49:53;9.43;;;6.15;;
78716;SDS011;68045;50.042;14.432;2023-06-14T23:53:53;9.13;;;6.90;;
78716;SDS011;68045;50.042;14.432;2023-06-14T23:57:55;8.70;;;6.85;;
